createdAt,value
2022-07-26T00:01:41.488Z,957.96
2022-07-26T00:16:43.928Z,957.96
2022-07-26T00:31:46.325Z,957.9
2022-07-26T00:46:48.688Z,957.82
2022-07-26T01:01:51.150Z,957.82
2022-07-26T01:16:53.572Z,957.7
2022-07-26T01:31:55.834Z,957.71
2022-07-26T01:46:58.195Z,957.69
2022-07-26T02:02:00.680Z,957.83
2022-07-26T02:17:03.032Z,957.76
2022-07-26T02:32:05.305Z,957.79
2022-07-26T02:47:07.617Z,957.88
2022-07-26T03:02:09.933Z,958.06
2022-07-26T03:17:12.251Z,958.24
2022-07-26T03:32:14.514Z,958.43
2022-07-26T03:47:16.807Z,958.61
2022-07-26T04:02:19.154Z,958.86
2022-07-26T04:17:21.623Z,959.25
2022-07-26T04:32:23.933Z,959.43
2022-07-26T04:47:26.254Z,959.55
2022-07-26T05:02:28.682Z,959.68
2022-07-26T05:17:31.128Z,959.81
2022-07-26T05:32:37.565Z,959.97
2022-07-26T05:47:39.843Z,960
2022-07-26T06:02:42.214Z,960.1
2022-07-26T06:17:44.641Z,960.23
2022-07-26T06:32:47.047Z,960.23
2022-07-26T06:47:49.352Z,960.36
2022-07-26T07:02:51.860Z,960.56
2022-07-26T07:17:54.124Z,960.59
2022-07-26T07:32:56.554Z,960.61
2022-07-26T07:47:59.000Z,960.69
2022-07-26T08:03:01.266Z,960.81
2022-07-26T08:18:03.621Z,960.95
2022-07-26T08:33:08.858Z,961.08
2022-07-26T08:48:18.396Z,961.18
2022-07-26T09:03:21.141Z,961.31
2022-07-26T09:18:23.515Z,961.47
2022-07-26T09:33:26.648Z,961.65
2022-07-26T09:48:36.509Z,961.8
2022-07-26T10:03:48.717Z,962.04
2022-07-26T10:18:51.062Z,962.16
2022-07-26T10:33:53.639Z,962.24
2022-07-26T10:48:56.099Z,962.27
2022-07-26T11:03:58.444Z,962.32
2022-07-26T11:19:00.725Z,962.45
2022-07-26T11:34:02.976Z,962.47
2022-07-26T11:49:05.530Z,962.61
2022-07-26T12:04:08.458Z,962.8
2022-07-26T12:19:11.161Z,963.09
2022-07-26T12:34:13.966Z,963.12
2022-07-26T12:49:16.661Z,963.16
2022-07-26T13:04:19.266Z,963.31
2022-07-26T13:19:21.540Z,963.33
2022-07-26T13:34:23.851Z,963.45
2022-07-26T13:49:26.256Z,963.52
2022-07-26T14:04:29.117Z,963.53
2022-07-26T14:19:31.549Z,963.52
2022-07-26T14:34:33.827Z,963.44
2022-07-26T14:49:36.243Z,963.41
2022-07-26T15:04:38.519Z,963.37
2022-07-26T15:19:40.862Z,963.32
2022-07-26T15:34:43.163Z,963.13
2022-07-26T15:49:45.503Z,963.02
2022-07-26T16:04:47.818Z,962.88
2022-07-26T16:19:51.102Z,962.75
2022-07-26T16:34:53.404Z,962.67
2022-07-26T16:49:55.705Z,962.49
2022-07-26T17:04:58.175Z,962.42
2022-07-26T17:20:00.514Z,962.22
2022-07-26T17:35:02.780Z,962.1
2022-07-26T18:05:41.079Z,961.74
2022-07-26T18:20:43.829Z,961.48
2022-07-26T18:35:46.153Z,961.32
2022-07-26T18:50:48.413Z,961.19
2022-07-26T19:05:53.270Z,960.9
2022-07-26T19:20:55.696Z,960.7
2022-07-26T19:35:57.993Z,960.61
2022-07-26T19:51:00.288Z,960.57
2022-07-26T20:06:02.657Z,960.29
2022-07-26T20:21:04.973Z,960.17
2022-07-26T20:36:07.404Z,959.93
2022-07-26T20:51:13.712Z,959.71
2022-07-26T21:06:16.435Z,959.58
2022-07-26T21:21:18.755Z,959.5
2022-07-26T21:36:21.061Z,959.36
2022-07-26T21:51:23.371Z,959.2
2022-07-26T22:06:25.667Z,958.92
2022-07-26T22:21:27.926Z,958.71
2022-07-26T22:36:30.379Z,958.56
2022-07-26T22:51:32.714Z,958.51
2022-07-26T23:06:36.165Z,958.38
2022-07-26T23:21:38.509Z,958.25
2022-07-26T23:36:40.816Z,958.2
2022-07-26T23:51:43.115Z,958.12
